Time;durP1;ratioP1;P1;durP2;ratioP2;P2;SDS_P1;SDS_P2;PMS_P1;PMS_P2;Temp;Humidity;BMP_temperature;BMP_pressure;BME280_temperature;BME280_humidity;BME280_pressure;Samples;Min_cycle;Max_cycle;Signal;HPM_P1;HPM_P2
2022/05/14 00:01:37;;;;;;;11.98;4.63;;;13.30;99.90;;;;;;5030644;28;20094;-69
2022/05/14 00:04:04;;;;;;;13.25;4.30;;;13.30;99.90;;;;;;5049323;28;20045;-69
2022/05/14 00:06:31;;;;;;;12.43;4.47;;;13.30;99.90;;;;;;5048680;28;20056;-71
2022/05/14 00:09:01;;;;;;;12.52;4.68;;;13.10;99.90;;;;;;5037678;28;20405;-68
2022/05/14 00:14:12;;;;;;;9.55;4.32;;;13.10;99.90;;;;;;5048116;28;20508;-70
2022/05/14 00:16:38;;;;;;;12.98;4.28;;;13.10;99.90;;;;;;5038030;28;20073;-75
2022/05/14 00:19:06;;;;;;;15.30;4.47;;;13.20;99.90;;;;;;5029888;28;20094;-70
2022/05/14 00:21:34;;;;;;;14.93;4.93;;;13.10;99.90;;;;;;5043786;28;20053;-68
2022/05/14 00:24:00;;;;;;;11.68;4.30;;;13.10;99.90;;;;;;5030772;28;20136;-71
2022/05/14 00:26:26;;;;;;;12.65;4.47;;;13.10;99.90;;;;;;5026023;28;20116;-70
2022/05/14 00:28:52;;;;;;;12.52;4.57;;;13.00;99.90;;;;;;5047084;28;20098;-69
2022/05/14 00:31:18;;;;;;;13.98;5.32;;;13.00;99.90;;;;;;5029875;28;20045;-71
2022/05/14 00:33:45;;;;;;;13.55;4.47;;;12.90;99.90;;;;;;5019602;28;20107;-70
2022/05/14 00:36:15;;;;;;;12.10;4.40;;;12.90;99.90;;;;;;5046057;28;20102;-70
2022/05/14 00:38:40;;;;;;;17.13;4.95;;;12.90;99.90;;;;;;5018394;28;20045;-69
2022/05/14 00:41:07;;;;;;;15.90;5.05;;;12.90;99.90;;;;;;5026612;28;20122;-69
2022/05/14 00:43:45;;;;;;;16.13;4.82;;;12.80;99.90;;;;;;5025372;28;20131;-72
2022/05/14 00:46:17;;;;;;;17.73;5.35;;;12.80;99.90;;;;;;5034748;28;20049;-70
2022/05/14 00:48:44;;;;;;;15.23;5.93;;;13.10;99.90;;;;;;5046281;28;20420;-72
2022/05/14 00:51:25;;;;;;;14.98;4.93;;;13.10;99.90;;;;;;5047058;28;20041;-70
2022/05/14 00:53:55;;;;;;;15.52;4.78;;;13.10;99.90;;;;;;5044849;28;20028;-69
2022/05/14 00:56:27;;;;;;;14.38;4.93;;;13.20;99.90;;;;;;5041366;28;20704;-70
2022/05/14 00:59:06;;;;;;;14.90;5.25;;;13.20;99.90;;;;;;5045994;28;20041;-69
2022/05/14 01:01:32;;;;;;;13.68;5.00;;;13.30;99.90;;;;;;5045893;28;20048;-71
2022/05/14 01:03:58;;;;;;;16.70;5.03;;;13.30;99.90;;;;;;5023780;28;20373;-71
2022/05/14 01:06:26;;;;;;;15.43;5.03;;;13.30;99.90;;;;;;5042267;28;20044;-73
2022/05/14 01:08:52;;;;;;;20.38;5.68;;;13.40;99.90;;;;;;5046753;28;20508;-71
2022/05/14 01:11:18;;;;;;;11.50;4.65;;;13.40;99.90;;;;;;5028488;28;20041;-73
2022/05/14 01:13:44;;;;;;;16.52;5.45;;;13.40;99.90;;;;;;5048794;28;20051;-68
2022/05/14 01:16:11;;;;;;;12.30;4.93;;;13.40;99.90;;;;;;5018912;28;20049;-70
2022/05/14 01:18:37;;;;;;;16.00;5.10;;;13.40;99.90;;;;;;5047318;28;20037;-70
2022/05/14 01:21:05;;;;;;;17.10;5.70;;;13.40;99.90;;;;;;5046416;28;20079;-71
2022/05/14 01:26:53;;;;;;;16.52;6.47;;;13.70;99.90;;;;;;5059213;28;20077;-70
2022/05/14 01:29:22;;;;;;;18.83;6.13;;;13.60;99.90;;;;;;5029661;28;20041;-70
2022/05/14 01:31:49;;;;;;;14.77;5.00;;;13.60;99.90;;;;;;5041881;28;20049;-71
2022/05/14 01:34:24;;;;;;;18.50;6.13;;;13.60;99.90;;;;;;5047585;28;20505;-70
2022/05/14 01:36:51;;;;;;;21.00;6.50;;;13.70;99.90;;;;;;5027649;28;20107;-70
2022/05/14 01:39:17;;;;;;;17.88;6.13;;;13.60;99.90;;;;;;5036286;28;20385;-71
2022/05/14 01:41:43;;;;;;;15.63;5.65;;;13.70;99.90;;;;;;5031393;28;20068;-72
2022/05/14 01:44:09;;;;;;;17.02;5.68;;;13.70;99.90;;;;;;5028969;28;20410;-69
2022/05/14 01:46:35;;;;;;;13.32;4.90;;;13.60;99.90;;;;;;5029500;28;20489;-72
2022/05/14 01:49:01;;;;;;;19.60;5.90;;;13.60;99.90;;;;;;5023988;28;20063;-69
2022/05/14 01:51:28;;;;;;;19.17;5.97;;;13.60;99.90;;;;;;5031380;28;20052;-71
2022/05/14 01:53:54;;;;;;;18.25;6.05;;;13.60;99.90;;;;;;5047517;28;20033;-70
2022/05/14 01:56:19;;;;;;;12.25;5.35;;;13.70;99.90;;;;;;5049347;28;20103;-70
2022/05/14 01:58:45;;;;;;;18.00;5.93;;;13.70;99.90;;;;;;5026618;28;20450;-70
2022/05/14 02:01:14;;;;;;;21.52;7.72;;;13.60;99.90;;;;;;5032977;28;20048;-72
2022/05/14 02:03:42;;;;;;;16.20;5.82;;;13.80;99.90;;;;;;5048046;28;20114;-69
2022/05/14 02:06:08;;;;;;;18.70;6.10;;;13.60;99.90;;;;;;5058543;28;20063;-68
2022/05/14 02:08:34;;;;;;;17.30;5.63;;;13.70;99.90;;;;;;4996670;28;20132;-70
2022/05/14 02:11:00;;;;;;;21.17;6.72;;;13.70;99.90;;;;;;5029416;28;20056;-72
2022/05/14 02:13:26;;;;;;;14.98;6.03;;;13.60;99.90;;;;;;5045138;28;20076;-72
2022/05/14 02:15:53;;;;;;;23.42;6.72;;;13.60;99.90;;;;;;5049354;28;20544;-71
2022/05/14 02:18:19;;;;;;;17.65;6.32;;;13.70;99.90;;;;;;5027673;28;20088;-70
2022/05/14 02:20:45;;;;;;;25.00;6.40;;;13.70;99.90;;;;;;5032372;28;20064;-70
2022/05/14 02:23:12;;;;;;;17.23;5.97;;;13.60;99.90;;;;;;5046266;28;20078;-70
2022/05/14 02:25:38;;;;;;;19.83;6.45;;;13.50;99.90;;;;;;5027490;28;20041;-71
2022/05/14 02:28:04;;;;;;;22.25;6.85;;;13.60;99.90;;;;;;5010266;28;20092;-71
2022/05/14 02:30:30;;;;;;;21.25;6.47;;;13.50;99.90;;;;;;5041212;28;20040;-71
2022/05/14 02:32:56;;;;;;;23.05;7.22;;;13.60;99.90;;;;;;5042165;28;20076;-72
2022/05/14 02:35:21;;;;;;;18.13;6.93;;;13.60;99.90;;;;;;5044538;28;20072;-70
2022/05/14 02:37:47;;;;;;;21.25;7.20;;;13.50;99.90;;;;;;5009587;28;20036;-69
2022/05/14 02:40:13;;;;;;;15.50;6.85;;;13.50;99.90;;;;;;5042127;28;20045;-69
2022/05/14 02:42:39;;;;;;;22.10;6.57;;;13.50;99.90;;;;;;5037147;28;20132;-70
2022/05/14 02:45:06;;;;;;;22.20;7.60;;;13.50;99.90;;;;;;5024904;28;20136;-70
2022/05/14 02:47:32;;;;;;;16.83;6.10;;;13.60;99.90;;;;;;5042805;28;20461;-71
2022/05/14 02:49:58;;;;;;;23.25;7.97;;;13.50;99.90;;;;;;5040105;28;20044;-69
2022/05/14 02:52:24;;;;;;;26.73;7.40;;;13.60;99.90;;;;;;5040886;28;20402;-73
2022/05/14 02:54:50;;;;;;;26.05;7.55;;;13.40;99.90;;;;;;5014495;28;20140;-70
2022/05/14 02:57:18;;;;;;;21.25;6.55;;;13.50;99.90;;;;;;5039678;28;20141;-69
2022/05/14 02:59:44;;;;;;;21.65;6.97;;;13.70;99.90;;;;;;5055306;28;20124;-70
2022/05/14 03:02:10;;;;;;;25.83;7.05;;;13.60;99.90;;;;;;5039931;28;20156;-70
2022/05/14 03:04:38;;;;;;;19.70;6.88;;;13.50;99.90;;;;;;5043315;28;20413;-72
2022/05/14 03:07:06;;;;;;;23.50;8.30;;;13.70;99.90;;;;;;5042700;28;20393;-71
2022/05/14 03:09:33;;;;;;;21.38;7.20;;;13.60;99.90;;;;;;5040362;28;20160;-71
2022/05/14 03:11:59;;;;;;;20.95;7.63;;;13.70;99.90;;;;;;5047887;28;20044;-72
2022/05/14 03:14:25;;;;;;;26.35;8.40;;;13.80;99.90;;;;;;5027839;28;20052;-70
2022/05/14 03:16:51;;;;;;;23.35;6.95;;;13.80;99.90;;;;;;5016386;28;20128;-70
2022/05/14 03:19:17;;;;;;;19.92;6.93;;;13.80;99.90;;;;;;5032020;28;20614;-73
2022/05/14 03:21:43;;;;;;;21.50;6.72;;;13.70;99.90;;;;;;5042801;28;20120;-70
2022/05/14 03:24:10;;;;;;;19.17;7.03;;;13.80;99.90;;;;;;5044250;28;20044;-68
2022/05/14 03:26:40;;;;;;;23.25;7.07;;;13.70;99.90;;;;;;5048440;28;20051;-71
2022/05/14 03:29:07;;;;;;;20.67;6.65;;;13.70;99.90;;;;;;5039566;28;20045;-72
2022/05/14 03:31:33;;;;;;;25.98;6.55;;;13.60;99.90;;;;;;5030385;28;20040;-72
2022/05/14 03:33:59;;;;;;;20.58;7.28;;;13.70;99.90;;;;;;5022442;28;20485;-72
2022/05/14 03:36:25;;;;;;;20.80;6.90;;;13.60;99.90;;;;;;5033692;28;20044;-68
2022/05/14 03:38:51;;;;;;;30.60;7.63;;;13.50;99.90;;;;;;5037796;28;20503;-72
2022/05/14 03:41:17;;;;;;;24.85;7.80;;;13.70;99.90;;;;;;5014823;28;20045;-71
2022/05/14 03:43:44;;;;;;;23.90;7.38;;;13.50;99.90;;;;;;5028876;28;20029;-71
2022/05/14 03:46:10;;;;;;;22.38;7.95;;;13.50;99.90;;;;;;5030121;28;20079;-70
2022/05/14 03:48:36;;;;;;;27.35;7.18;;;13.60;99.90;;;;;;5031413;28;20037;-71
2022/05/14 03:51:03;;;;;;;25.15;6.80;;;13.70;99.90;;;;;;5022794;28;20042;-70
2022/05/14 03:53:30;;;;;;;26.05;7.47;;;13.60;99.90;;;;;;5059430;28;20037;-70
2022/05/14 03:55:56;;;;;;;23.00;7.70;;;13.70;99.90;;;;;;5046954;28;20143;-71
2022/05/14 03:58:22;;;;;;;23.08;7.75;;;13.60;99.90;;;;;;5029859;28;20112;-72
2022/05/14 04:00:48;;;;;;;25.27;8.23;;;13.80;99.90;;;;;;5040809;28;20808;-69
2022/05/14 04:03:14;;;;;;;21.98;7.93;;;13.80;99.90;;;;;;5035632;28;20045;-69
2022/05/14 04:05:40;;;;;;;27.92;8.50;;;13.80;99.90;;;;;;5031095;28;20064;-69
2022/05/14 04:08:06;;;;;;;25.40;7.95;;;13.80;99.90;;;;;;5021810;28;20085;-71
2022/05/14 04:10:32;;;;;;;24.98;8.00;;;13.80;99.90;;;;;;5040396;28;20148;-69
2022/05/14 04:12:59;;;;;;;25.08;8.30;;;13.70;99.90;;;;;;5041532;28;20132;-72
2022/05/14 04:15:25;;;;;;;22.63;7.63;;;13.80;99.90;;;;;;5043287;28;20048;-70
2022/05/14 04:17:54;;;;;;;21.58;7.47;;;13.70;99.90;;;;;;5024196;28;20037;-71
2022/05/14 04:20:21;;;;;;;23.88;8.55;;;13.80;99.90;;;;;;5043287;28;20539;-70
2022/05/14 04:22:48;;;;;;;21.75;9.00;;;13.90;99.90;;;;;;5045911;28;20098;-71
2022/05/14 04:25:14;;;;;;;23.52;8.90;;;14.00;99.90;;;;;;5024223;28;20047;-69
2022/05/14 04:27:41;;;;;;;25.95;8.20;;;13.90;99.90;;;;;;5046189;28;20563;-72
2022/05/14 04:30:08;;;;;;;28.00;9.45;;;14.10;99.90;;;;;;5024255;28;20048;-70
2022/05/14 04:32:34;;;;;;;28.35;9.30;;;14.30;99.90;;;;;;5026674;28;20150;-73
2022/05/14 04:35:00;;;;;;;32.17;9.93;;;14.40;99.90;;;;;;5040938;28;20456;-70
2022/05/14 04:37:26;;;;;;;23.90;7.85;;;14.40;99.90;;;;;;5030484;28;20033;-72
2022/05/14 04:39:51;;;;;;;24.75;8.32;;;14.30;99.90;;;;;;5031744;28;20033;-71
2022/05/14 04:42:17;;;;;;;23.75;8.80;;;14.30;99.90;;;;;;5005623;28;20143;-72
2022/05/14 04:44:43;;;;;;;22.77;9.07;;;14.50;99.90;;;;;;5048413;28;20071;-71
2022/05/14 04:47:09;;;;;;;25.55;8.40;;;14.50;99.90;;;;;;5028913;28;20102;-69
2022/05/14 04:49:44;;;;;;;30.52;8.27;;;14.50;99.90;;;;;;5042747;28;20045;-69
2022/05/14 04:52:10;;;;;;;19.63;7.53;;;14.70;99.90;;;;;;5044395;28;20059;-71
2022/05/14 04:54:36;;;;;;;31.23;9.25;;;14.60;99.90;;;;;;5046054;28;20045;-72
2022/05/14 04:57:03;;;;;;;29.73;8.88;;;14.70;99.90;;;;;;5048595;28;20436;-70
2022/05/14 04:59:29;;;;;;;27.25;8.73;;;14.90;99.90;;;;;;5048411;28;20115;-70
2022/05/14 05:04:44;;;;;;;26.95;8.70;;;14.80;99.90;;;;;;5040068;28;20071;-69
2022/05/14 05:07:10;;;;;;;18.58;8.18;;;14.80;99.90;;;;;;5048269;28;20102;-70
2022/05/14 05:09:36;;;;;;;23.02;7.63;;;14.90;99.90;;;;;;5038781;28;20052;-70
2022/05/14 05:12:02;;;;;;;25.60;8.82;;;15.20;99.90;;;;;;5046814;28;20045;-71
2022/05/14 05:14:28;;;;;;;23.88;8.15;;;15.20;99.90;;;;;;5017315;28;20042;-69
2022/05/14 05:16:53;;;;;;;25.58;8.55;;;15.20;99.90;;;;;;5024371;28;20408;-71
2022/05/14 05:19:19;;;;;;;28.92;8.60;;;15.30;99.90;;;;;;5041144;28;20033;-70
2022/05/14 05:21:45;;;;;;;29.80;8.93;;;15.40;99.90;;;;;;5046450;28;20036;-69
2022/05/14 05:24:12;;;;;;;19.45;8.38;;;15.50;99.90;;;;;;5049079;28;20041;-72
2022/05/14 05:26:38;;;;;;;22.33;7.63;;;15.50;99.90;;;;;;5029918;28;20072;-71
2022/05/14 05:29:05;;;;;;;27.02;8.98;;;15.70;99.90;;;;;;5028711;28;20044;-68
2022/05/14 05:31:34;;;;;;;29.20;7.43;;;15.70;99.90;;;;;;5047513;28;20392;-70
2022/05/14 05:34:00;;;;;;;21.95;7.90;;;15.70;99.90;;;;;;5033213;28;20384;-69
2022/05/14 05:36:26;;;;;;;20.20;7.13;;;15.70;99.90;;;;;;5047335;28;20109;-70
2022/05/14 05:38:52;;;;;;;29.50;7.68;;;15.40;99.90;;;;;;5048303;28;20124;-72
2022/05/14 05:41:19;;;;;;;27.90;7.63;;;15.60;99.90;;;;;;5014408;28;20517;-70
2022/05/14 05:43:45;;;;;;;19.60;6.45;;;15.50;99.90;;;;;;5047527;28;20033;-72
2022/05/14 05:46:12;;;;;;;16.60;6.43;;;15.30;99.90;;;;;;5027794;28;20041;-69
2022/05/14 05:48:38;;;;;;;22.95;7.80;;;15.40;99.90;;;;;;5049130;28;20114;-70
2022/05/14 05:51:04;;;;;;;16.60;6.18;;;15.50;99.90;;;;;;5031467;28;20087;-71
2022/05/14 05:58:59;;;;;;;19.17;6.63;;;15.40;99.90;;;;;;5045120;28;20049;-71
2022/05/14 06:01:25;;;;;;;19.38;5.35;;;15.30;99.90;;;;;;5028721;28;20037;-70
2022/05/14 06:03:51;;;;;;;21.73;5.88;;;15.20;99.90;;;;;;5046679;28;20045;-71
2022/05/14 06:06:18;;;;;;;22.45;6.32;;;15.20;99.90;;;;;;5013032;28;20044;-70
2022/05/14 06:08:44;;;;;;;20.10;5.97;;;15.10;99.90;;;;;;5036645;28;20043;-72
2022/05/14 06:11:09;;;;;;;22.35;5.32;;;15.30;99.90;;;;;;5041309;28;20401;-69
2022/05/14 06:13:36;;;;;;;18.30;6.60;;;15.20;99.90;;;;;;5033357;28;20042;-70
2022/05/14 06:16:02;;;;;;;20.95;6.18;;;15.40;99.90;;;;;;5025590;28;20037;-69
2022/05/14 06:18:28;;;;;;;16.13;5.45;;;15.40;99.90;;;;;;5016622;28;20041;-71
2022/05/14 06:20:53;;;;;;;17.38;5.68;;;15.20;99.90;;;;;;5040447;28;20090;-71
2022/05/14 06:23:20;;;;;;;19.33;5.40;;;15.10;99.90;;;;;;5035394;28;20124;-71
2022/05/14 06:25:46;;;;;;;16.05;4.95;;;15.20;99.90;;;;;;5034983;28;20152;-70
2022/05/14 06:28:12;;;;;;;17.17;5.18;;;15.10;99.90;;;;;;5052525;28;20548;-70
2022/05/14 06:30:41;;;;;;;12.90;4.20;;;14.80;99.90;;;;;;5033312;28;20090;-70
2022/05/14 06:33:08;;;;;;;14.57;4.50;;;14.80;99.90;;;;;;5030485;28;20076;-70
2022/05/14 06:35:35;;;;;;;18.55;4.50;;;14.50;99.90;;;;;;5052720;28;20037;-71
2022/05/14 06:38:03;;;;;;;14.57;4.10;;;14.40;99.90;;;;;;5020384;28;20041;-70
2022/05/14 06:40:29;;;;;;;17.30;4.82;;;14.30;99.90;;;;;;5037675;28;20531;-71
2022/05/14 06:42:55;;;;;;;17.58;4.43;;;14.50;99.90;;;;;;5044912;28;20048;-71
2022/05/14 06:45:21;;;;;;;15.80;4.10;;;14.50;99.90;;;;;;5035811;28;20045;-70
2022/05/14 06:47:47;;;;;;;16.83;4.63;;;14.70;99.90;;;;;;5052746;28;20037;-70
2022/05/14 06:50:13;;;;;;;16.48;4.30;;;14.70;99.90;;;;;;5052112;28;20104;-70
2022/05/14 06:52:41;;;;;;;19.10;5.18;;;15.10;99.90;;;;;;5014118;28;20037;-69
2022/05/14 06:55:10;;;;;;;14.23;4.55;;;15.20;99.90;;;;;;5035748;28;20132;-71
2022/05/14 06:57:37;;;;;;;15.45;4.45;;;15.20;99.90;;;;;;5046592;28;20152;-69
2022/05/14 07:00:05;;;;;;;12.43;4.50;;;15.10;99.90;;;;;;5044878;28;20556;-69
2022/05/14 07:02:30;;;;;;;10.85;3.47;;;15.20;99.90;;;;;;5049343;28;20037;-70
2022/05/14 07:07:41;;;;;;;12.77;4.35;;;15.40;99.90;;;;;;5050225;28;20476;-71
2022/05/14 07:10:07;;;;;;;15.70;4.00;;;15.50;99.90;;;;;;5032787;28;20041;-71
2022/05/14 07:12:33;;;;;;;10.93;3.28;;;15.50;99.90;;;;;;5049533;28;20041;-69
2022/05/14 07:14:59;;;;;;;13.80;3.70;;;15.60;99.90;;;;;;5034914;28;20037;-70
2022/05/14 07:17:25;;;;;;;13.57;5.03;;;15.60;99.90;;;;;;5033139;28;20171;-72
2022/05/14 07:19:52;;;;;;;11.75;4.20;;;15.50;99.90;;;;;;5039532;28;20044;-69
2022/05/14 07:22:18;;;;;;;10.20;3.55;;;15.50;99.90;;;;;;5032627;28;20036;-69
2022/05/14 07:24:45;;;;;;;18.30;4.10;;;15.60;99.90;;;;;;5049787;28;20041;-70
2022/05/14 07:27:11;;;;;;;11.07;3.70;;;15.60;99.90;;;;;;5051083;28;20045;-69
2022/05/14 07:29:40;;;;;;;10.88;3.53;;;15.70;99.90;;;;;;5031534;28;20088;-69
2022/05/14 07:32:08;;;;;;;17.02;4.10;;;15.70;99.90;;;;;;5031558;28;20492;-69
2022/05/14 07:34:34;;;;;;;10.98;3.35;;;15.90;99.90;;;;;;5049139;28;20411;-70
2022/05/14 07:37:18;;;;;;;11.18;3.70;;;15.90;99.90;;;;;;5034870;28;20052;-74
2022/05/14 07:40:14;;;;;;;11.00;3.83;;;15.80;99.90;;;;;;5060543;28;20048;-67
2022/05/14 07:42:45;;;;;;;11.30;3.88;;;15.80;99.90;;;;;;5030899;28;20059;-69
2022/05/14 07:45:15;;;;;;;13.63;3.78;;;15.80;99.90;;;;;;5050834;28;20044;-69
2022/05/14 07:47:41;;;;;;;9.57;3.58;;;15.90;99.90;;;;;;5051040;28;20045;-70
2022/05/14 07:50:07;;;;;;;12.43;4.00;;;16.10;99.90;;;;;;5049604;28;20037;-69
2022/05/14 07:52:33;;;;;;;10.10;3.25;;;16.10;99.90;;;;;;5050942;28;20599;-72
2022/05/14 07:54:59;;;;;;;10.27;3.35;;;16.20;99.90;;;;;;4998106;28;20068;-69
2022/05/14 07:57:25;;;;;;;12.50;3.65;;;16.30;99.90;;;;;;5014020;28;20041;-70
2022/05/14 07:59:50;;;;;;;9.90;3.28;;;16.20;99.90;;;;;;5031174;28;20568;-68
2022/05/14 08:02:23;;;;;;;11.73;3.42;;;16.20;99.90;;;;;;5017951;28;20049;-69
2022/05/14 08:04:49;;;;;;;11.00;2.67;;;16.20;99.90;;;;;;5043292;28;20064;-71
2022/05/14 08:07:15;;;;;;;9.93;3.08;;;16.30;99.90;;;;;;5033918;28;20143;-70
2022/05/14 08:09:40;;;;;;;10.90;3.45;;;16.50;99.90;;;;;;5050118;28;20433;-68
2022/05/14 08:12:06;;;;;;;13.85;3.50;;;16.60;99.90;;;;;;5022269;28;20446;-70
2022/05/14 08:14:33;;;;;;;10.35;3.17;;;16.40;99.90;;;;;;5038508;28;20032;-68
2022/05/14 08:16:59;;;;;;;11.95;3.63;;;16.60;99.90;;;;;;5050559;28;20045;-69
2022/05/14 08:19:26;;;;;;;14.30;3.50;;;16.70;99.90;;;;;;5048362;28;20041;-71
2022/05/14 08:24:36;;;;;;;12.70;3.43;;;17.00;99.90;;;;;;5035358;28;20053;-69
2022/05/14 08:27:08;;;;;;;12.13;3.60;;;16.90;99.90;;;;;;5050425;28;20045;-69
2022/05/14 08:29:34;;;;;;;13.00;3.60;;;16.90;99.90;;;;;;5049334;28;20090;-70
2022/05/14 08:32:00;;;;;;;11.52;4.18;;;17.10;99.90;;;;;;5035335;28;20041;-71
2022/05/14 08:34:26;;;;;;;11.00;3.47;;;17.30;99.90;;;;;;5009792;28;20513;-70
2022/05/14 08:36:52;;;;;;;18.25;3.85;;;17.70;99.90;;;;;;5049753;28;20128;-70
2022/05/14 08:39:18;;;;;;;9.00;3.40;;;17.80;99.90;;;;;;5032994;28;20513;-71
2022/05/14 08:41:47;;;;;;;15.23;3.78;;;18.00;99.90;;;;;;5049413;28;20045;-70
2022/05/14 08:44:33;;;;;;;12.20;3.88;;;17.60;99.90;;;;;;5048280;28;20118;-69
2022/05/14 08:47:03;;;;;;;12.23;3.38;;;17.90;99.90;;;;;;5062791;28;20056;-70
2022/05/14 08:49:32;;;;;;;14.10;3.55;;;17.90;99.90;;;;;;5031551;28;20055;-70
2022/05/14 08:51:59;;;;;;;13.25;3.67;;;17.70;99.90;;;;;;5045882;28;20075;-70
2022/05/14 08:54:26;;;;;;;15.82;3.85;;;17.60;99.90;;;;;;5044247;28;20033;-68
2022/05/14 08:57:12;;;;;;;13.02;3.78;;;17.70;99.90;;;;;;5046196;28;20099;-69
2022/05/14 08:59:55;;;;;;;15.30;3.70;;;18.20;99.90;;;;;;5048799;28;20041;-71
2022/05/14 09:02:35;;;;;;;12.35;3.78;;;18.20;99.90;;;;;;5045569;28;20041;-67
2022/05/14 09:05:00;;;;;;;16.15;4.68;;;18.40;99.90;;;;;;5049886;28;20435;-68
2022/05/14 09:07:26;;;;;;;13.82;4.05;;;18.20;99.90;;;;;;5046765;28;20047;-71
2022/05/14 09:09:55;;;;;;;13.20;4.72;;;18.10;99.90;;;;;;5045675;28;20094;-68
2022/05/14 09:12:33;;;;;;;11.63;3.63;;;17.90;99.90;;;;;;5044868;28;20094;-68
2022/05/14 09:15:04;;;;;;;13.07;3.60;;;18.70;99.90;;;;;;5048332;28;20041;-69
2022/05/14 09:17:30;;;;;;;8.60;3.28;;;18.70;99.90;;;;;;5044554;28;20115;-69
2022/05/14 09:19:58;;;;;;;16.42;3.60;;;18.70;99.90;;;;;;5031327;28;20045;-70
2022/05/14 09:22:26;;;;;;;12.93;4.07;;;18.60;99.90;;;;;;5028404;28;20045;-70
2022/05/14 09:24:53;;;;;;;15.13;4.05;;;18.60;99.90;;;;;;5028787;28;20056;-69
2022/05/14 09:27:22;;;;;;;12.02;4.03;;;19.20;99.90;;;;;;5037784;28;20040;-70
2022/05/14 09:29:52;;;;;;;12.43;3.05;;;19.00;99.90;;;;;;5046345;28;20037;-68
2022/05/14 09:32:20;;;;;;;9.68;3.28;;;18.90;99.90;;;;;;5046834;28;20044;-70
2022/05/14 09:34:47;;;;;;;11.02;4.13;;;19.90;99.90;;;;;;5048735;28;20398;-69
2022/05/14 09:37:19;;;;;;;9.40;3.42;;;20.30;99.90;;;;;;5030817;28;20126;-71
2022/05/14 09:40:07;;;;;;;17.23;4.63;;;20.50;99.90;;;;;;5026922;28;20048;-72
2022/05/14 09:42:42;;;;;;;14.52;4.05;;;20.50;99.90;;;;;;5030198;28;20044;-70
2022/05/14 09:45:36;;;;;;;12.45;3.90;;;20.50;99.90;;;;;;5049296;28;20037;-70
2022/05/14 09:48:19;;;;;;;10.82;3.70;;;20.40;99.90;;;;;;5044345;28;20444;-70
2022/05/14 09:50:47;;;;;;;13.50;4.07;;;20.10;99.90;;;;;;5030420;28;20063;-68
2022/05/14 09:53:25;;;;;;;9.50;3.40;;;19.40;99.90;;;;;;5047774;28;20095;-69
2022/05/14 09:56:04;;;;;;;11.43;4.22;;;19.80;99.90;;;;;;5048006;28;20126;-68
2022/05/14 09:58:31;;;;;;;11.80;3.85;;;19.30;99.90;;;;;;5045961;28;20394;-71
2022/05/14 10:01:14;;;;;;;12.38;3.35;;;19.30;99.90;;;;;;5017661;28;20089;-70
2022/05/14 10:04:06;;;;;;;13.63;4.10;;;18.80;99.90;;;;;;5040747;28;20124;-69
2022/05/14 10:06:37;;;;;;;13.48;3.40;;;18.70;99.90;;;;;;5044364;28;20037;-71
2022/05/14 10:09:34;;;;;;;15.73;3.90;;;18.50;99.90;;;;;;5047023;28;20033;-70
2022/05/14 10:12:10;;;;;;;14.93;3.88;;;18.10;99.90;;;;;;5036295;28;20045;-71
2022/05/14 10:14:57;;;;;;;11.15;4.15;;;18.40;99.90;;;;;;5044188;28;20033;-71
2022/05/14 10:17:42;;;;;;;11.73;3.17;;;18.80;99.90;;;;;;5044238;28;20095;-69
2022/05/14 10:20:29;;;;;;;13.52;3.35;;;19.50;99.90;;;;;;5032543;28;20043;-69
2022/05/14 10:26:48;;;;;;;15.05;4.20;;;19.90;99.90;;;;;;5033207;28;20070;-69
2022/05/14 10:29:53;;;;;;;17.38;4.05;;;20.60;99.90;;;;;;5047748;28;20044;-69
2022/05/14 10:32:20;;;;;;;10.05;3.38;;;20.90;99.90;;;;;;5028191;28;20041;-71
2022/05/14 10:34:52;;;;;;;11.55;3.70;;;20.80;99.90;;;;;;5047944;28;20496;-70
2022/05/14 10:37:47;;;;;;;12.02;3.65;;;21.00;99.90;;;;;;5046474;28;20040;-71
2022/05/14 10:40:13;;;;;;;12.30;3.25;;;20.90;99.90;;;;;;5010149;28;20080;-70
2022/05/14 10:42:54;;;;;;;12.25;3.67;;;21.30;99.90;;;;;;5040871;28;20045;-69
2022/05/14 10:45:37;;;;;;;11.52;4.07;;;21.50;99.90;;;;;;5046894;28;20092;-72
2022/05/14 10:48:37;;;;;;;10.93;3.78;;;22.20;99.90;;;;;;5047947;28;20099;-70
2022/05/14 10:51:07;;;;;;;9.93;3.70;;;21.30;99.90;;;;;;5047457;28;20446;-71
2022/05/14 10:53:33;;;;;;;9.15;4.22;;;20.80;99.90;;;;;;5034339;28;20408;-71
2022/05/14 10:56:13;;;;;;;11.30;3.67;;;20.10;99.90;;;;;;5034788;28;20053;-72
2022/05/14 10:58:53;;;;;;;14.75;4.05;;;19.90;99.90;;;;;;5047552;28;20045;-71
2022/05/14 11:01:33;;;;;;;10.48;3.30;;;20.60;99.90;;;;;;5034505;28;20121;-69
2022/05/14 11:04:13;;;;;;;11.95;3.60;;;20.90;99.90;;;;;;5031898;28;20374;-69
2022/05/14 11:06:58;;;;;;;9.40;3.10;;;21.40;99.90;;;;;;5035144;28;20033;-70
2022/05/14 11:09:44;;;;;;;9.23;3.13;;;22.20;99.90;;;;;;5029736;28;20038;-73
2022/05/14 11:12:26;;;;;;;10.30;3.85;;;22.00;99.90;;;;;;5048560;28;20417;-71
2022/05/14 11:14:55;;;;;;;14.07;4.05;;;22.30;99.90;;;;;;5049941;28;20041;-71
2022/05/14 11:17:34;;;;;;;9.63;3.75;;;21.30;99.90;;;;;;5014436;28;20088;-68
2022/05/14 11:20:06;;;;;;;10.10;3.35;;;21.30;99.90;;;;;;5039723;28;20072;-70
2022/05/14 11:22:39;;;;;;;10.82;3.58;;;20.30;99.90;;;;;;5011758;28;20106;-71
2022/05/14 11:25:16;;;;;;;11.50;3.60;;;21.00;99.90;;;;;;5043074;28;20029;-69
2022/05/14 11:28:02;;;;;;;11.80;4.07;;;20.90;99.90;;;;;;5019434;28;20041;-71
2022/05/14 11:30:45;;;;;;;12.95;3.50;;;20.40;99.90;;;;;;5042909;28;20444;-72
2022/05/14 11:33:26;;;;;;;10.68;4.13;;;20.10;99.90;;;;;;5014531;28;20033;-68
2022/05/14 11:36:00;;;;;;;10.50;3.50;;;20.10;99.90;;;;;;5030633;28;20090;-72
2022/05/14 11:38:26;;;;;;;9.77;3.70;;;21.10;99.90;;;;;;5046469;28;20107;-69
2022/05/14 11:41:35;;;;;;;11.60;3.72;;;20.70;99.90;;;;;;5050524;28;20060;-69
2022/05/14 11:44:04;;;;;;;11.55;3.58;;;20.50;99.90;;;;;;5038688;28;20037;-70
2022/05/14 11:46:39;;;;;;;13.15;3.80;;;20.30;99.90;;;;;;5032908;28;20039;-69
2022/05/14 11:49:26;;;;;;;10.20;2.92;;;20.40;99.90;;;;;;5031707;28;20476;-69
2022/05/14 11:52:13;;;;;;;8.35;3.38;;;21.00;99.90;;;;;;5030409;28;20184;-67
2022/05/14 11:55:02;;;;;;;11.90;3.90;;;21.40;99.90;;;;;;5029825;28;20124;-69
2022/05/14 11:57:33;;;;;;;9.45;3.35;;;22.10;99.90;;;;;;5029573;28;20100;-68
2022/05/14 12:00:08;;;;;;;12.18;3.78;;;22.40;99.90;;;;;;5041247;28;20064;-71
2022/05/14 12:02:43;;;;;;;8.88;3.55;;;21.60;99.90;;;;;;5033135;28;20603;-68
2022/05/14 12:05:29;;;;;;;14.80;4.30;;;21.50;99.90;;;;;;5049788;28;20048;-71
2022/05/14 12:08:13;;;;;;;13.18;4.22;;;21.10;99.90;;;;;;5044058;28;20045;-71
2022/05/14 12:11:13;;;;;;;13.32;3.83;;;21.10;99.90;;;;;;5033605;28;20076;-69
2022/05/14 12:13:50;;;;;;;14.45;4.20;;;20.40;99.90;;;;;;5031317;28;20152;-71
2022/05/14 12:16:16;;;;;;;13.02;3.80;;;20.20;99.90;;;;;;5027717;28;20041;-73
2022/05/14 12:18:43;;;;;;;15.75;4.13;;;20.10;99.90;;;;;;5046916;28;20041;-69
2022/05/14 12:21:09;;;;;;;14.55;4.32;;;19.70;99.90;;;;;;5050277;28;20549;-70
2022/05/14 12:23:45;;;;;;;13.63;4.18;;;19.80;99.90;;;;;;5048625;28;20037;-69
2022/05/14 12:26:31;;;;;;;13.40;3.95;;;20.00;99.90;;;;;;5031412;28;20112;-68
2022/05/14 12:29:12;;;;;;;12.15;3.58;;;21.20;99.90;;;;;;5049103;28;20116;-70
2022/05/14 12:34:33;;;;;;;10.18;3.35;;;21.60;99.90;;;;;;5032432;28;20037;-71
2022/05/14 12:36:59;;;;;;;15.27;3.85;;;21.80;99.90;;;;;;5033746;28;20048;-69
2022/05/14 12:39:29;;;;;;;12.27;4.15;;;21.20;99.90;;;;;;5017297;28;20116;-73
2022/05/14 12:42:05;;;;;;;14.70;4.10;;;20.70;99.90;;;;;;5031057;28;20048;-71
2022/05/14 12:44:42;;;;;;;14.07;3.72;;;20.90;99.90;;;;;;5042322;28;20083;-69
2022/05/14 12:47:08;;;;;;;11.98;3.97;;;21.20;99.90;;;;;;5027017;28;20047;-70
2022/05/14 12:49:42;;;;;;;14.15;4.22;;;20.60;99.90;;;;;;5046607;28;20041;-69
2022/05/14 12:52:11;;;;;;;12.47;3.87;;;20.10;99.90;;;;;;5045420;28;20099;-67
2022/05/14 12:54:48;;;;;;;12.15;4.38;;;20.10;99.90;;;;;;5043819;28;20932;-69
2022/05/14 12:57:14;;;;;;;16.23;4.22;;;20.10;99.90;;;;;;5041828;28;20124;-70
2022/05/14 12:59:40;;;;;;;12.32;3.78;;;20.20;99.90;;;;;;5026271;28;20489;-68
2022/05/14 13:02:16;;;;;;;13.23;4.13;;;19.90;99.90;;;;;;5046555;28;20055;-71
2022/05/14 13:05:03;;;;;;;12.85;3.55;;;19.80;99.90;;;;;;5048262;28;20056;-69
2022/05/14 13:07:30;;;;;;;10.88;3.75;;;19.60;99.90;;;;;;5046060;28;20199;-69
2022/05/14 13:09:57;;;;;;;16.30;4.45;;;19.50;99.90;;;;;;5049065;28;20045;-68
2022/05/14 13:12:27;;;;;;;15.90;4.50;;;19.40;99.90;;;;;;5030913;28;20382;-69
2022/05/14 13:15:01;;;;;;;12.63;3.88;;;19.40;99.90;;;;;;5047653;28;20504;-69
2022/05/14 13:17:36;;;;;;;10.95;3.95;;;19.30;99.90;;;;;;5047526;28;20043;-68
2022/05/14 13:20:14;;;;;;;14.32;4.03;;;19.20;99.90;;;;;;5014951;28;20508;-71